Time;durP1;ratioP1;P1;durP2;ratioP2;P2;SDS_P1;SDS_P2;PMS_P1;PMS_P2;Temp;Humidity;BMP_temperature;BMP_pressure;BME280_temperature;BME280_humidity;BME280_pressure;Samples;Min_cycle;Max_cycle;Signal;HPM_P1;HPM_P2
2023/10/13 00:00:40;;;;;;;13.90;9.70;;;19.20;99.90;;;;;;2098775;28;20495;-73
2023/10/13 00:01:41;;;;;;;11.40;8.88;;;19.20;99.90;;;;;;2098870;28;20033;-73
2023/10/13 00:02:43;;;;;;;11.13;9.93;;;19.20;99.90;;;;;;2098407;28;20503;-73
2023/10/13 00:03:43;;;;;;;14.85;9.82;;;19.20;99.90;;;;;;2099538;28;20103;-73
2023/10/13 00:04:46;;;;;;;13.15;9.73;;;19.20;99.90;;;;;;2097535;28;20742;-73
2023/10/13 00:05:47;;;;;;;15.93;10.50;;;19.20;99.90;;;;;;2098339;28;20082;-73
2023/10/13 00:06:48;;;;;;;12.27;10.45;;;19.20;99.90;;;;;;2101745;28;20116;-73
2023/10/13 00:07:49;;;;;;;12.27;10.57;;;19.20;99.90;;;;;;2094226;28;20036;-73
2023/10/13 00:08:50;;;;;;;15.55;10.88;;;19.20;99.90;;;;;;2094612;28;20078;-72
2023/10/13 00:09:50;;;;;;;14.02;10.20;;;19.20;99.90;;;;;;2100664;28;20115;-73
2023/10/13 00:10:51;;;;;;;15.40;11.18;;;19.20;99.90;;;;;;2098395;28;20459;-73
2023/10/13 00:11:53;;;;;;;13.57;10.15;;;19.20;99.90;;;;;;2099596;28;20039;-72
2023/10/13 00:13:05;;;;;;;11.52;10.32;;;19.20;99.90;;;;;;2098433;28;20505;-73
2023/10/13 00:14:09;;;;;;;19.27;11.00;;;19.20;99.90;;;;;;2100912;28;20729;-73
2023/10/13 00:15:13;;;;;;;12.43;10.07;;;19.20;99.90;;;;;;2100309;28;20567;-73
2023/10/13 00:16:17;;;;;;;11.63;10.43;;;19.20;99.90;;;;;;2097359;28;20082;-73
2023/10/13 00:17:24;;;;;;;16.15;9.82;;;19.20;99.90;;;;;;2102490;28;20056;-73
2023/10/13 00:18:54;;;;;;;12.38;9.70;;;19.30;99.90;;;;;;2102719;28;20012;-73
2023/10/13 00:19:52;;;;;;;11.00;9.30;;;19.30;99.90;;;;;;2097886;28;20056;-73
2023/10/13 00:20:56;;;;;;;13.23;10.13;;;19.20;99.90;;;;;;2096990;28;20075;-72
2023/10/13 00:22:08;;;;;;;12.25;8.57;;;19.20;99.90;;;;;;2098208;28;20108;-73
2023/10/13 00:23:09;;;;;;;12.50;9.07;;;19.30;99.90;;;;;;2098192;28;20024;-72
2023/10/13 00:24:12;;;;;;;12.40;9.23;;;19.30;99.90;;;;;;2099141;28;20177;-73
2023/10/13 00:25:19;;;;;;;14.02;9.70;;;19.30;99.90;;;;;;2099140;28;20017;-73
2023/10/13 00:26:24;;;;;;;13.60;9.05;;;19.30;99.90;;;;;;2098901;28;20034;-73
2023/10/13 00:27:29;;;;;;;11.13;9.93;;;19.30;99.90;;;;;;2097070;28;20038;-72
2023/10/13 00:28:43;;;;;;;10.30;9.23;;;19.30;99.90;;;;;;2099685;28;20101;-73
2023/10/13 00:29:44;;;;;;;11.23;9.13;;;19.20;99.90;;;;;;2098722;28;20073;-72
2023/10/13 00:30:50;;;;;;;13.65;9.63;;;19.20;99.90;;;;;;2096483;28;20094;-73
2023/10/13 00:31:52;;;;;;;12.55;9.02;;;19.20;99.90;;;;;;2098662;28;20452;-73
2023/10/13 00:32:56;;;;;;;13.98;9.52;;;19.20;99.90;;;;;;2099429;28;20503;-73
2023/10/13 00:34:01;;;;;;;15.10;8.80;;;19.30;99.90;;;;;;2096666;28;20031;-72
2023/10/13 00:35:05;;;;;;;11.45;8.30;;;19.30;99.90;;;;;;2098167;28;20031;-72
2023/10/13 00:36:07;;;;;;;13.90;8.30;;;19.20;99.90;;;;;;2099454;28;20024;-73
2023/10/13 00:37:18;;;;;;;12.23;9.27;;;19.20;99.90;;;;;;2098008;28;20460;-73
2023/10/13 00:38:19;;;;;;;13.27;8.73;;;19.20;99.90;;;;;;2096836;28;20039;-73
2023/10/13 00:39:22;;;;;;;11.45;8.38;;;19.20;99.90;;;;;;2097146;28;20025;-73
2023/10/13 00:42:52;;;;;;;14.05;8.00;;;19.30;99.90;;;;;;2099053;28;20111;-72
2023/10/13 00:44:04;;;;;;;12.82;8.98;;;19.30;99.90;;;;;;2097743;28;20031;-72
2023/10/13 00:45:05;;;;;;;12.38;8.02;;;19.30;99.90;;;;;;2098189;28;20475;-72
2023/10/13 00:46:07;;;;;;;11.40;8.63;;;19.20;99.90;;;;;;2097955;28;20479;-72
2023/10/13 00:47:09;;;;;;;11.63;8.15;;;19.30;99.90;;;;;;2098578;28;20512;-72
2023/10/13 00:48:14;;;;;;;10.85;8.05;;;19.30;99.90;;;;;;2098281;28;20024;-73
2023/10/13 00:49:15;;;;;;;13.13;8.05;;;19.30;99.90;;;;;;2099478;28;20020;-72
2023/10/13 00:50:17;;;;;;;10.73;8.65;;;19.30;99.90;;;;;;2098842;28;20404;-73
2023/10/13 00:51:32;;;;;;;12.82;8.68;;;19.30;99.90;;;;;;2097654;28;20029;-73
2023/10/13 00:52:35;;;;;;;12.20;8.88;;;19.30;99.90;;;;;;2097947;28;20025;-72
2023/10/13 00:53:39;;;;;;;11.25;8.27;;;19.30;99.90;;;;;;2097153;28;20034;-73
2023/10/13 00:54:46;;;;;;;10.75;7.97;;;19.30;99.90;;;;;;2098616;28;20127;-72
2023/10/13 00:55:46;;;;;;;10.30;8.35;;;19.30;99.90;;;;;;2092408;28;20028;-72
2023/10/13 00:56:49;;;;;;;13.45;8.75;;;19.30;99.90;;;;;;2101009;28;20024;-73
2023/10/13 00:57:54;;;;;;;12.30;7.72;;;19.30;99.90;;;;;;2098882;28;20016;-72
2023/10/13 00:58:57;;;;;;;12.35;8.07;;;19.30;99.90;;;;;;2107163;28;20032;-73
2023/10/13 00:59:59;;;;;;;14.32;8.00;;;19.30;99.90;;;;;;2105219;28;20063;-72
2023/10/13 01:01:17;;;;;;;14.55;8.75;;;19.30;99.90;;;;;;2097376;28;20577;-73
2023/10/13 01:03:38;;;;;;;11.48;9.60;;;19.30;99.90;;;;;;2097507;28;20040;-73
2023/10/13 01:04:38;;;;;;;13.40;10.18;;;19.20;99.90;;;;;;2098421;28;20035;-72
2023/10/13 01:05:41;;;;;;;17.17;10.65;;;19.30;99.90;;;;;;2097216;28;20071;-73
2023/10/13 01:06:41;;;;;;;14.52;10.55;;;19.20;99.90;;;;;;2096750;28;20035;-73
2023/10/13 01:07:42;;;;;;;14.05;10.38;;;19.30;99.90;;;;;;2096501;28;20056;-73
2023/10/13 01:08:50;;;;;;;15.80;11.63;;;19.30;99.90;;;;;;2096375;28;20039;-73
2023/10/13 01:09:51;;;;;;;13.00;10.25;;;19.30;99.90;;;;;;2098033;28;20874;-72
2023/10/13 01:10:53;;;;;;;15.77;10.27;;;19.30;99.90;;;;;;2099059;28;20028;-73
2023/10/13 01:11:54;;;;;;;12.60;10.63;;;19.30;99.90;;;;;;2097047;28;20038;-72
2023/10/13 01:12:55;;;;;;;14.75;10.15;;;19.30;99.90;;;;;;2098841;28;20720;-72
2023/10/13 01:13:56;;;;;;;16.48;9.65;;;19.30;99.90;;;;;;2097231;28;20438;-73
2023/10/13 01:14:59;;;;;;;11.98;8.52;;;19.30;99.90;;;;;;2098489;28;20026;-73
2023/10/13 01:16:02;;;;;;;13.00;8.80;;;19.30;99.90;;;;;;2095373;28;20036;-73
2023/10/13 01:17:03;;;;;;;11.15;8.35;;;19.30;99.90;;;;;;2096016;28;20387;-72
2023/10/13 01:18:12;;;;;;;10.10;7.80;;;19.30;99.90;;;;;;2098100;28;20024;-73
2023/10/13 01:19:19;;;;;;;16.02;8.45;;;19.30;99.90;;;;;;2097516;28;20161;-73
2023/10/13 01:20:28;;;;;;;13.60;8.40;;;19.30;99.90;;;;;;2097576;28;20032;-73
2023/10/13 01:21:29;;;;;;;10.60;8.25;;;19.30;99.90;;;;;;2098063;28;20601;-72
2023/10/13 01:22:31;;;;;;;10.38;7.70;;;19.30;99.90;;;;;;2096260;28;20055;-72
2023/10/13 01:23:37;;;;;;;11.45;8.05;;;19.40;99.90;;;;;;2098996;28;20020;-72
2023/10/13 01:24:38;;;;;;;8.48;7.20;;;19.40;99.90;;;;;;2096842;28;20077;-71
2023/10/13 01:25:40;;;;;;;9.93;8.30;;;19.40;99.90;;;;;;2098560;28;20055;-72
2023/10/13 01:26:42;;;;;;;12.80;7.55;;;19.40;99.90;;;;;;2098441;28;20024;-71
2023/10/13 01:27:44;;;;;;;9.85;7.38;;;19.40;99.90;;;;;;2097826;28;20452;-71
2023/10/13 01:28:46;;;;;;;9.35;7.35;;;19.40;99.90;;;;;;2102349;28;20071;-72
2023/10/13 01:29:48;;;;;;;8.85;6.82;;;19.40;99.90;;;;;;2099444;28;20028;-71
2023/10/13 01:30:52;;;;;;;10.15;7.50;;;19.40;99.90;;;;;;2099315;28;20020;-71
2023/10/13 01:31:52;;;;;;;13.73;8.02;;;19.40;99.90;;;;;;2099544;28;20028;-72
2023/10/13 01:32:54;;;;;;;11.70;6.95;;;19.40;99.90;;;;;;2098086;28;20126;-71
2023/10/13 01:33:58;;;;;;;10.68;7.60;;;19.50;99.90;;;;;;2097244;28;20119;-72
2023/10/13 01:35:06;;;;;;;9.77;6.65;;;19.40;99.90;;;;;;2098253;28;20024;-70
2023/10/13 01:36:08;;;;;;;9.75;7.85;;;19.40;99.90;;;;;;2098063;28;20036;-71
2023/10/13 01:37:10;;;;;;;9.80;7.82;;;19.40;99.90;;;;;;2097339;28;20024;-71
2023/10/13 01:38:11;;;;;;;12.38;7.75;;;19.50;99.90;;;;;;2097945;28;20016;-71
2023/10/13 01:39:16;;;;;;;11.65;7.85;;;19.50;99.90;;;;;;2100303;28;20030;-70
2023/10/13 01:40:20;;;;;;;11.25;8.45;;;19.50;99.90;;;;;;2100796;28;20053;-71
2023/10/13 01:41:22;;;;;;;12.43;8.20;;;19.40;99.90;;;;;;2097734;28;20040;-71
2023/10/13 01:42:24;;;;;;;8.07;6.68;;;19.50;99.90;;;;;;2099079;28;20427;-73
2023/10/13 01:43:25;;;;;;;9.00;6.78;;;19.50;99.90;;;;;;2097779;28;20424;-71
2023/10/13 01:44:33;;;;;;;11.60;7.40;;;19.50;99.90;;;;;;2097960;28;20114;-72
2023/10/13 01:45:34;;;;;;;9.82;7.65;;;19.50;99.90;;;;;;2097128;28;20173;-72
2023/10/13 01:46:36;;;;;;;12.65;7.70;;;19.50;99.90;;;;;;2097755;28;20020;-72
2023/10/13 01:47:39;;;;;;;10.07;7.95;;;19.50;99.90;;;;;;2097599;28;20946;-72
2023/10/13 01:48:40;;;;;;;8.75;6.80;;;19.50;99.90;;;;;;2097467;28;20115;-72
2023/10/13 01:49:42;;;;;;;13.35;8.57;;;19.50;99.90;;;;;;2101346;28;20036;-72
2023/10/13 01:50:55;;;;;;;11.50;7.82;;;19.50;99.90;;;;;;2101672;28;20222;-72
2023/10/13 01:51:56;;;;;;;9.43;7.03;;;19.50;99.90;;;;;;2098427;28;20748;-71
2023/10/13 01:53:17;;;;;;;10.13;7.65;;;19.50;99.90;;;;;;2100629;28;20057;-73
2023/10/13 01:54:18;;;;;;;9.10;7.65;;;19.50;99.90;;;;;;2098988;28;20084;-73
2023/10/13 01:55:19;;;;;;;8.60;7.13;;;19.50;99.90;;;;;;2097137;28;20082;-73
2023/10/13 01:56:23;;;;;;;10.32;7.15;;;19.50;99.90;;;;;;2098337;28;20017;-72
2023/10/13 01:57:24;;;;;;;14.35;7.50;;;19.50;99.90;;;;;;2097201;28;20028;-73
2023/10/13 01:58:26;;;;;;;9.65;6.85;;;19.50;99.90;;;;;;2099365;28;20028;-72
2023/10/13 01:59:26;;;;;;;8.77;6.80;;;19.50;99.90;;;;;;2098705;28;20020;-72
2023/10/13 02:00:29;;;;;;;9.27;7.00;;;19.50;99.90;;;;;;2096348;28;20052;-73
2023/10/13 02:01:34;;;;;;;8.80;6.35;;;19.50;99.90;;;;;;2098023;28;20020;-73
2023/10/13 02:02:37;;;;;;;10.55;6.68;;;19.50;99.90;;;;;;2097618;28;20024;-71
2023/10/13 02:03:48;;;;;;;9.77;7.82;;;19.50;99.90;;;;;;2098482;28;20078;-72
2023/10/13 02:05:00;;;;;;;9.43;7.28;;;19.50;99.90;;;;;;2099186;28;20020;-71
2023/10/13 02:06:04;;;;;;;10.30;7.55;;;19.50;99.90;;;;;;2099300;28;20111;-71
2023/10/13 02:07:08;;;;;;;10.00;6.85;;;19.50;99.90;;;;;;2093375;28;20093;-71
2023/10/13 02:08:11;;;;;;;13.13;7.55;;;19.50;99.90;;;;;;2098998;28;20031;-72
2023/10/13 02:09:25;;;;;;;9.77;7.47;;;19.50;99.90;;;;;;2097658;28;20021;-72
2023/10/13 02:10:28;;;;;;;8.98;6.93;;;19.50;99.90;;;;;;2100715;28;20028;-72
2023/10/13 02:11:30;;;;;;;11.20;7.45;;;19.50;99.90;;;;;;2100340;28;20099;-72
2023/10/13 02:12:43;;;;;;;9.38;7.32;;;19.50;99.90;;;;;;2100904;28;20020;-72
2023/10/13 02:13:48;;;;;;;10.65;6.88;;;19.50;99.90;;;;;;2099944;28;20020;-71
2023/10/13 02:14:49;;;;;;;12.85;7.00;;;19.50;99.90;;;;;;2097384;28;20028;-72
2023/10/13 02:15:53;;;;;;;10.32;7.75;;;19.50;99.90;;;;;;2096275;28;20064;-71
2023/10/13 02:17:12;;;;;;;10.43;7.22;;;19.50;99.90;;;;;;2096821;28;20032;-72
2023/10/13 02:18:26;;;;;;;9.02;6.90;;;19.50;99.90;;;;;;2098296;28;20028;-71
2023/10/13 02:19:27;;;;;;;9.88;6.60;;;19.50;99.90;;;;;;2097152;28;20411;-71
2023/10/13 02:20:30;;;;;;;10.98;7.80;;;19.50;99.90;;;;;;2098093;28;20029;-72
2023/10/13 02:21:39;;;;;;;10.18;7.40;;;19.50;99.90;;;;;;2096676;28;20031;-71
2023/10/13 02:22:48;;;;;;;10.90;6.93;;;19.50;99.90;;;;;;2097607;28;20032;-72
2023/10/13 02:24:04;;;;;;;10.43;6.85;;;19.50;99.90;;;;;;2097164;28;20027;-72
2023/10/13 02:25:06;;;;;;;8.05;7.10;;;19.50;99.90;;;;;;2098728;28;20024;-71
2023/10/13 02:26:30;;;;;;;11.43;7.88;;;19.50;99.90;;;;;;2097400;28;20504;-72
2023/10/13 02:27:40;;;;;;;13.27;7.18;;;19.50;99.90;;;;;;2097987;28;20023;-72
2023/10/13 02:28:41;;;;;;;;;;;19.50;99.90;;;;;;2100137;28;20029;-72
2023/10/13 02:29:45;;;;;;;9.00;6.53;;;19.40;99.90;;;;;;2096785;28;19914;-71
2023/10/13 02:30:48;;;;;;;10.68;6.70;;;19.50;99.90;;;;;;2097240;28;20368;-72
2023/10/13 02:31:55;;;;;;;13.02;7.28;;;19.50;99.90;;;;;;2099881;28;20395;-72
2023/10/13 02:32:57;;;;;;;11.82;7.60;;;19.50;99.90;;;;;;2096540;28;20024;-72
2023/10/13 02:33:59;;;;;;;9.05;7.60;;;19.50;99.90;;;;;;2095901;28;20032;-73
2023/10/13 02:35:06;;;;;;;9.05;7.30;;;19.50;99.90;;;;;;2096986;28;20021;-73
2023/10/13 02:36:06;;;;;;;10.38;7.93;;;19.50;99.90;;;;;;2102071;28;20414;-73
2023/10/13 02:37:09;;;;;;;10.43;7.82;;;19.50;99.90;;;;;;2101792;28;20056;-73
2023/10/13 02:38:13;;;;;;;9.25;7.18;;;19.50;99.90;;;;;;2097452;28;20044;-73
2023/10/13 02:39:26;;;;;;;14.10;8.10;;;19.50;99.90;;;;;;2097980;28;20023;-72
2023/10/13 02:40:27;;;;;;;11.82;7.47;;;19.50;99.90;;;;;;2098105;28;20012;-73
2023/10/13 02:41:28;;;;;;;9.30;7.28;;;19.50;99.90;;;;;;2097848;28;20039;-73
2023/10/13 02:42:29;;;;;;;13.65;8.13;;;19.50;99.90;;;;;;2098204;28;20025;-72
2023/10/13 02:43:33;;;;;;;10.80;7.35;;;19.50;99.90;;;;;;2097858;28;20035;-73
2023/10/13 02:44:36;;;;;;;9.98;7.20;;;19.50;99.90;;;;;;2096782;28;20593;-72
2023/10/13 02:45:37;;;;;;;11.30;8.25;;;19.50;99.90;;;;;;2097137;28;20863;-72
2023/10/13 02:46:40;;;;;;;12.40;7.18;;;19.50;99.90;;;;;;2098281;28;20571;-72
2023/10/13 02:47:44;;;;;;;13.55;8.23;;;19.50;99.90;;;;;;2097504;28;20028;-73
2023/10/13 02:48:52;;;;;;;9.65;7.13;;;19.50;99.90;;;;;;2097113;28;20054;-73
2023/10/13 02:49:53;;;;;;;10.98;7.50;;;19.50;99.90;;;;;;2096293;28;20024;-73
2023/10/13 02:51:01;;;;;;;10.05;7.50;;;19.50;99.90;;;;;;2098434;28;20049;-72
2023/10/13 02:52:07;;;;;;;10.82;7.80;;;19.50;99.90;;;;;;2096114;28;20048;-72
2023/10/13 02:53:12;;;;;;;8.68;7.20;;;19.50;99.90;;;;;;2099862;28;20115;-73
2023/10/13 02:54:18;;;;;;;10.52;7.40;;;19.60;99.90;;;;;;2096629;28;20564;-73
2023/10/13 02:55:25;;;;;;;8.50;6.97;;;19.50;99.90;;;;;;2099054;28;20024;-72
2023/10/13 02:56:25;;;;;;;8.88;7.32;;;19.50;99.90;;;;;;2089934;28;20029;-72
2023/10/13 02:57:26;;;;;;;9.57;7.25;;;19.50;99.90;;;;;;2090097;28;20024;-73
2023/10/13 02:58:37;;;;;;;8.45;7.65;;;19.50;99.90;;;;;;2098679;28;20048;-73
2023/10/13 02:59:46;;;;;;;11.30;6.78;;;19.50;99.90;;;;;;2096683;28;20032;-72
2023/10/13 03:00:46;;;;;;;10.27;6.90;;;19.60;99.90;;;;;;2096941;28;20027;-73
2023/10/13 03:01:47;;;;;;;11.40;6.60;;;19.60;99.90;;;;;;2096926;28;20035;-73
2023/10/13 03:02:58;;;;;;;9.38;7.05;;;19.50;99.90;;;;;;2096751;28;20420;-73
2023/10/13 03:03:58;;;;;;;8.20;6.75;;;19.50;99.90;;;;;;2096969;28;20024;-73
2023/10/13 03:04:59;;;;;;;10.93;7.18;;;19.50;99.90;;;;;;2097971;28;20019;-73
2023/10/13 03:06:01;;;;;;;8.40;7.20;;;19.50;99.90;;;;;;2097663;28;20029;-72
2023/10/13 03:07:02;;;;;;;10.50;7.10;;;19.60;99.90;;;;;;2097529;28;20561;-72
2023/10/13 03:08:04;;;;;;;10.77;7.07;;;19.60;99.90;;;;;;2097790;28;20021;-73
2023/10/13 03:09:21;;;;;;;11.13;7.25;;;19.60;99.90;;;;;;2096450;28;20029;-73
2023/10/13 03:10:28;;;;;;;8.75;7.25;;;19.60;99.90;;;;;;2096967;28;20039;-72
2023/10/13 03:11:32;;;;;;;11.38;7.55;;;19.50;99.90;;;;;;2095147;28;20649;-72
2023/10/13 03:12:33;;;;;;;9.95;7.57;;;19.60;99.90;;;;;;2097318;28;20477;-73
2023/10/13 03:13:34;;;;;;;10.32;7.47;;;19.50;99.90;;;;;;2098314;28;20093;-73
2023/10/13 03:14:35;;;;;;;12.90;6.93;;;19.60;99.90;;;;;;2099826;28;20020;-72
2023/10/13 03:15:35;;;;;;;8.95;7.07;;;19.60;99.90;;;;;;2096760;28;20032;-72
2023/10/13 03:16:36;;;;;;;8.70;7.50;;;19.60;99.90;;;;;;2097906;28;20681;-73
2023/10/13 03:17:40;;;;;;;12.25;6.82;;;19.60;99.90;;;;;;2096674;28;20036;-72
2023/10/13 03:18:56;;;;;;;12.18;7.43;;;19.60;99.90;;;;;;2097566;28;20403;-72
2023/10/13 03:19:57;;;;;;;9.32;6.95;;;19.60;99.90;;;;;;2096399;28;20029;-72
2023/10/13 03:20:59;;;;;;;9.20;6.93;;;19.50;99.90;;;;;;2098053;28;20031;-72
2023/10/13 03:22:11;;;;;;;11.27;7.75;;;19.50;99.90;;;;;;2104767;28;20016;-72
2023/10/13 03:23:11;;;;;;;9.88;7.22;;;19.50;99.90;;;;;;2104180;28;20063;-72
2023/10/13 03:24:13;;;;;;;12.30;7.60;;;19.50;99.90;;;;;;2097513;28;20689;-72
2023/10/13 03:25:23;;;;;;;9.98;7.65;;;19.60;99.90;;;;;;2097811;28;20396;-72
2023/10/13 03:26:24;;;;;;;10.00;7.10;;;19.60;99.90;;;;;;2097843;28;20035;-73
2023/10/13 03:27:38;;;;;;;12.02;7.10;;;19.50;99.90;;;;;;2096752;28;20468;-72
2023/10/13 03:28:39;;;;;;;11.85;6.50;;;19.60;99.90;;;;;;2098543;28;20396;-73
2023/10/13 03:29:42;;;;;;;8.18;7.13;;;19.60;99.90;;;;;;2098615;28;20444;-72
2023/10/13 03:30:43;;;;;;;9.90;6.95;;;19.60;99.90;;;;;;2100179;28;21219;-72
2023/10/13 03:31:45;;;;;;;8.52;7.10;;;19.50;99.90;;;;;;2095366;28;20095;-73
2023/10/13 03:32:48;;;;;;;9.90;7.25;;;19.60;99.90;;;;;;2101941;28;20157;-72
2023/10/13 03:33:49;;;;;;;11.15;7.63;;;19.60;99.90;;;;;;2097406;28;20027;-73
2023/10/13 03:35:11;;;;;;;9.50;6.97;;;19.60;99.90;;;;;;2098973;28;20032;-73
2023/10/13 03:36:35;;;;;;;9.85;7.25;;;19.60;99.90;;;;;;2095090;28;20386;-72
2023/10/13 03:37:40;;;;;;;10.88;7.32;;;19.50;99.90;;;;;;2101979;28;20024;-73
2023/10/13 03:38:40;;;;;;;8.48;6.90;;;19.50;99.90;;;;;;2097510;28;20027;-73
2023/10/13 03:39:44;;;;;;;9.18;7.40;;;19.50;99.90;;;;;;2100517;28;20138;-73
2023/10/13 03:40:56;;;;;;;8.80;6.78;;;19.50;99.90;;;;;;2099152;28;20024;-73
2023/10/13 03:41:59;;;;;;;10.93;7.82;;;19.60;99.90;;;;;;2097985;28;20013;-73
2023/10/13 03:43:04;;;;;;;8.25;7.25;;;19.50;99.90;;;;;;2099395;28;20928;-72
2023/10/13 03:44:18;;;;;;;10.30;7.72;;;19.60;99.90;;;;;;2099901;28;20063;-72
2023/10/13 03:45:21;;;;;;;8.27;7.25;;;19.60;99.90;;;;;;2100988;28;20036;-72
2023/10/13 03:46:23;;;;;;;10.65;7.60;;;19.60;99.90;;;;;;2100407;28;20024;-73
2023/10/13 03:47:26;;;;;;;11.30;7.65;;;19.60;99.90;;;;;;2097431;28;20032;-73
2023/10/13 03:49:29;;;;;;;7.65;6.85;;;19.60;99.90;;;;;;2099316;28;20117;-73
2023/10/13 03:50:31;;;;;;;8.82;7.07;;;19.60;99.90;;;;;;2099397;28;20027;-73
2023/10/13 03:51:32;;;;;;;7.85;6.85;;;19.60;99.90;;;;;;2100183;28;20025;-72
2023/10/13 03:52:35;;;;;;;8.38;7.03;;;19.60;99.90;;;;;;2100107;28;20135;-73
2023/10/13 03:53:53;;;;;;;10.02;7.43;;;19.60;99.90;;;;;;2099204;28;20060;-73
2023/10/13 03:54:53;;;;;;;12.95;7.20;;;19.60;99.90;;;;;;2099574;28;20460;-72
2023/10/13 03:56:07;;;;;;;9.35;7.65;;;19.60;99.90;;;;;;2097476;28;20493;-73
2023/10/13 03:57:12;;;;;;;10.30;6.57;;;19.60;99.90;;;;;;2097969;28;20024;-73
2023/10/13 03:58:13;;;;;;;8.35;6.80;;;19.50;99.90;;;;;;2099856;28;20501;-72
2023/10/13 04:00:23;;;;;;;8.13;7.32;;;19.60;99.90;;;;;;2101834;28;20110;-73
2023/10/13 04:02:51;;;;;;;8.70;7.82;;;19.50;99.90;;;;;;2098752;28;20569;-73
2023/10/13 04:04:03;;;;;;;8.65;7.18;;;19.50;99.90;;;;;;2098473;28;20040;-73
2023/10/13 04:05:07;;;;;;;8.45;6.80;;;19.50;99.90;;;;;;2098340;28;20078;-73
2023/10/13 04:06:15;;;;;;;10.60;7.28;;;19.50;99.90;;;;;;2098145;28;20048;-72
2023/10/13 04:14:52;;;;;;;10.85;7.90;;;19.50;99.90;;;;;;2098967;28;20013;-72
2023/10/13 04:16:14;;;;;;;7.63;6.78;;;19.50;99.90;;;;;;2099020;28;20083;-73
2023/10/13 04:17:13;;;;;;;8.25;7.15;;;19.50;99.90;;;;;;2096920;28;20120;-72
2023/10/13 04:18:30;;;;;;;8.90;6.95;;;19.40;99.90;;;;;;2099143;28;20019;-72
2023/10/13 04:19:39;;;;;;;9.43;7.90;;;19.50;99.90;;;;;;2097982;28;20036;-72
2023/10/13 04:20:46;;;;;;;11.43;7.30;;;19.50;99.90;;;;;;2099562;28;20530;-72
2023/10/13 04:21:57;;;;;;;7.80;6.72;;;19.50;99.90;;;;;;2100046;28;20860;-73
2023/10/13 04:24:08;;;;;;;9.73;7.10;;;19.40;99.90;;;;;;2100733;28;20035;-72
2023/10/13 04:26:37;;;;;;;9.75;6.90;;;19.40;99.90;;;;;;2100673;28;20038;-73
2023/10/13 04:27:53;;;;;;;10.18;6.75;;;19.40;99.90;;;;;;2100201;28;20428;-72
2023/10/13 04:28:56;;;;;;;9.35;6.90;;;19.40;99.90;;;;;;2096488;28;20112;-72
2023/10/13 04:30:10;;;;;;;10.05;6.40;;;19.40;99.90;;;;;;2098668;28;20016;-72
2023/10/13 04:31:24;;;;;;;7.75;6.93;;;19.40;99.90;;;;;;2098306;28;20078;-72
2023/10/13 04:32:28;;;;;;;8.32;6.80;;;19.40;99.90;;;;;;2100062;28;20490;-72
2023/10/13 04:34:39;;;;;;;9.35;6.72;;;19.40;99.90;;;;;;2099224;28;20399;-73
2023/10/13 04:35:47;;;;;;;7.32;6.50;;;19.40;99.90;;;;;;2098259;28;20565;-72
2023/10/13 04:36:55;;;;;;;8.30;6.63;;;19.40;99.90;;;;;;2097151;28;20455;-73
2023/10/13 04:38:10;;;;;;;8.23;6.40;;;19.40;99.90;;;;;;2097860;28;20036;-72
2023/10/13 04:39:16;;;;;;;7.40;6.47;;;19.40;99.90;;;;;;2097735;28;20418;-72
2023/10/13 04:40:24;;;;;;;8.75;6.45;;;19.40;99.90;;;;;;2098125;28;20589;-72
2023/10/13 04:41:32;;;;;;;9.05;6.82;;;19.40;99.90;;;;;;2099923;28;20024;-73
2023/10/13 04:43:55;;;;;;;7.30;6.45;;;19.40;99.90;;;;;;2098737;28;20032;-73
2023/10/13 04:45:00;;;;;;;10.70;7.18;;;19.40;99.90;;;;;;2102569;28;20027;-72
2023/10/13 04:46:25;;;;;;;7.72;6.50;;;19.40;99.90;;;;;;2102569;28;20099;-72
2023/10/13 04:47:21;;;;;;;9.98;6.50;;;19.40;99.90;;;;;;2101410;28;20039;-73
2023/10/13 04:49:29;;;;;;;10.43;6.63;;;19.40;99.90;;;;;;2099541;28;20619;-73
2023/10/13 04:50:41;;;;;;;8.32;6.97;;;19.40;99.90;;;;;;2098404;28;20035;-73
2023/10/13 04:51:58;;;;;;;12.55;7.65;;;19.40;99.90;;;;;;2097795;28;20029;-72
2023/10/13 04:53:02;;;;;;;10.10;6.47;;;19.40;99.90;;;;;;2099005;28;20423;-73
2023/10/13 04:54:26;;;;;;;9.07;6.70;;;19.40;99.90;;;;;;2102139;28;20032;-73
2023/10/13 04:55:43;;;;;;;8.52;6.50;;;19.40;99.90;;;;;;2095431;28;20066;-72
2023/10/13 04:56:59;;;;;;;10.50;7.45;;;19.40;99.90;;;;;;2099082;28;20456;-73
2023/10/13 04:58:11;;;;;;;9.95;6.97;;;19.40;99.90;;;;;;2097291;28;20032;-73
2023/10/13 05:03:53;;;;;;;14.68;6.80;;;19.30;99.90;;;;;;2098007;28;20459;-72
2023/10/13 05:47:46;;;;;;;;;;;19.30;99.90;;;;;;2092511;28;20017;-73
2023/10/13 05:49:20;;;;;;;10.70;6.95;;;19.30;99.90;;;;;;2093862;28;19908;-73
2023/10/13 05:50:13;;;;;;;8.35;6.30;;;19.30;99.90;;;;;;2091628;28;20028;-73
2023/10/13 06:28:41;;;;;;;11.95;5.20;;;19.40;99.90;;;;;;2098453;28;20111;-73
2023/10/13 06:29:45;;;;;;;10.73;5.60;;;19.40;99.90;;;;;;2097269;28;20495;-73
2023/10/13 06:30:57;;;;;;;9.45;4.63;;;19.40;99.90;;;;;;2098339;28;20078;-72
2023/10/13 06:32:01;;;;;;;7.45;5.20;;;19.40;99.90;;;;;;2097579;28;20092;-73
2023/10/13 06:33:04;;;;;;;13.20;5.00;;;19.40;99.90;;;;;;2096519;28;20025;-73
2023/10/13 06:34:04;;;;;;;7.93;4.88;;;19.40;99.90;;;;;;2096913;28;20040;-73
2023/10/13 06:35:07;;;;;;;10.10;4.93;;;19.40;99.90;;;;;;2097830;28;20036;-73
2023/10/13 06:36:10;;;;;;;13.40;5.22;;;19.50;99.90;;;;;;2096917;28;20115;-73
2023/10/13 06:37:24;;;;;;;10.60;5.30;;;19.40;99.90;;;;;;2096449;28;20020;-72
2023/10/13 06:38:27;;;;;;;8.73;4.90;;;19.40;99.90;;;;;;2099252;28;20463;-74
2023/10/13 06:39:36;;;;;;;10.02;5.30;;;19.50;99.90;;;;;;2095634;28;20124;-73
2023/10/13 06:40:39;;;;;;;10.27;4.65;;;19.50;99.90;;;;;;2095874;28;20055;-74
2023/10/13 06:41:40;;;;;;;10.82;4.65;;;19.40;99.90;;;;;;2097138;28;20046;-73
2023/10/13 06:42:43;;;;;;;11.95;5.18;;;19.50;99.90;;;;;;2098928;28;20062;-73
2023/10/13 06:43:45;;;;;;;9.13;4.88;;;19.40;99.90;;;;;;2099168;28;20107;-73
2023/10/13 06:44:46;;;;;;;11.07;5.40;;;19.50;99.90;;;;;;2097376;28;20020;-74
2023/10/13 06:46:00;;;;;;;5.22;4.40;;;19.50;99.90;;;;;;2095698;28;20024;-73
2023/10/13 06:47:03;;;;;;;10.02;4.57;;;19.50;99.90;;;;;;2100562;28;20721;-73
2023/10/13 06:48:05;;;;;;;8.63;4.88;;;19.50;99.90;;;;;;2102019;28;20028;-73
2023/10/13 06:49:10;;;;;;;9.48;5.28;;;19.50;99.90;;;;;;2093806;28;20123;-73
2023/10/13 06:50:24;;;;;;;10.18;5.03;;;19.50;99.90;;;;;;2097736;28;20025;-73
2023/10/13 06:51:30;;;;;;;11.52;4.95;;;19.50;99.90;;;;;;2101574;28;20067;-72
2023/10/13 06:52:31;;;;;;;10.40;4.82;;;19.50;99.90;;;;;;2102608;28;20464;-72
2023/10/13 06:53:37;;;;;;;9.48;4.40;;;19.50;99.90;;;;;;2099074;28;20464;-73
2023/10/13 06:54:40;;;;;;;13.15;5.07;;;19.50;99.90;;;;;;2098903;28;20038;-73
2023/10/13 06:55:41;;;;;;;11.50;5.20;;;19.50;99.90;;;;;;2099516;28;20032;-72
2023/10/13 06:56:46;;;;;;;11.68;5.32;;;19.50;99.90;;;;;;2094014;28;20040;-73
2023/10/13 06:57:49;;;;;;;9.68;4.88;;;19.50;99.90;;;;;;2101417;28;20016;-73
2023/10/13 06:58:49;;;;;;;11.13;5.30;;;19.60;99.90;;;;;;2098192;28;20024;-73
2023/10/13 06:59:51;;;;;;;10.52;4.57;;;19.50;99.90;;;;;;2097081;28;20046;-74
2023/10/13 07:00:55;;;;;;;8.45;5.25;;;19.60;99.90;;;;;;2096854;28;20025;-73
2023/10/13 07:02:05;;;;;;;9.30;4.72;;;19.60;99.90;;;;;;2097421;28;20421;-72
2023/10/13 07:03:05;;;;;;;12.02;4.40;;;19.60;99.90;;;;;;2101410;28;20024;-72
2023/10/13 07:04:13;;;;;;;10.00;5.00;;;19.60;99.90;;;;;;2098591;28;20585;-73
2023/10/13 07:05:14;;;;;;;8.23;4.40;;;19.70;99.90;;;;;;2099230;28;20468;-73
2023/10/13 07:06:19;;;;;;;12.75;5.30;;;19.60;99.90;;;;;;2101809;28;20036;-72
2023/10/13 07:07:22;;;;;;;8.65;4.30;;;19.70;99.90;;;;;;2101738;28;20031;-73
2023/10/13 07:08:23;;;;;;;7.55;4.30;;;19.70;99.90;;;;;;2104053;28;20016;-73
2023/10/13 07:10:48;;;;;;;7.70;4.53;;;19.70;99.90;;;;;;2098877;28;20024;-73
2023/10/13 07:11:52;;;;;;;8.35;4.80;;;19.80;99.90;;;;;;2099920;28;20515;-73
2023/10/13 07:12:55;;;;;;;10.32;5.10;;;19.70;99.90;;;;;;2100962;28;20579;-72
2023/10/13 07:13:58;;;;;;;12.27;4.80;;;19.80;99.90;;;;;;2098438;28;20027;-73
2023/10/13 07:15:19;;;;;;;9.98;4.90;;;19.80;99.90;;;;;;2100089;28;20517;-73
2023/10/13 07:16:19;;;;;;;8.52;4.80;;;19.80;99.90;;;;;;2099685;28;20032;-73
2023/10/13 07:17:26;;;;;;;10.05;4.95;;;19.80;99.90;;;;;;2098755;28;20166;-73
2023/10/13 07:18:32;;;;;;;9.18;5.47;;;19.80;99.90;;;;;;2100014;28;20023;-73
2023/10/13 07:19:33;;;;;;;9.95;5.30;;;19.90;99.90;;;;;;2098721;28;20167;-73
2023/10/13 07:20:34;;;;;;;9.02;5.45;;;19.80;99.90;;;;;;2098583;28;20113;-73
2023/10/13 07:21:35;;;;;;;10.57;5.32;;;19.90;99.90;;;;;;2099114;28;20174;-73
2023/10/13 07:22:39;;;;;;;8.02;5.25;;;19.90;99.90;;;;;;2099633;28;20094;-73
2023/10/13 07:23:43;;;;;;;8.18;4.93;;;19.90;99.90;;;;;;2100384;28;20027;-73